createdAt,value
2018-05-29T00:01:53.842Z,91.10
2018-05-29T00:04:22.692Z,91.10
2018-05-29T00:06:51.717Z,91.20
2018-05-29T00:09:19.988Z,91.20
2018-05-29T00:11:48.237Z,91.20
2018-05-29T00:14:17.272Z,91.20
2018-05-29T00:16:46.356Z,91.40
2018-05-29T00:19:14.620Z,91.40
2018-05-29T00:21:42.873Z,91.30
2018-05-29T00:24:11.125Z,91.20
2018-05-29T00:26:39.376Z,91.30
2018-05-29T00:29:07.670Z,91.40
2018-05-29T00:31:35.926Z,91.50
2018-05-29T00:34:04.209Z,91.70
2018-05-29T00:36:33.306Z,91.60
2018-05-29T00:39:02.327Z,91.60
2018-05-29T00:41:31.152Z,91.60
2018-05-29T00:43:59.448Z,91.70
2018-05-29T00:46:27.709Z,91.70
2018-05-29T00:48:56.088Z,91.70
2018-05-29T00:51:25.153Z,91.70
2018-05-29T00:53:54.214Z,91.70
2018-05-29T00:56:22.516Z,91.70
2018-05-29T00:58:50.793Z,91.80
2018-05-29T01:01:19.915Z,92.00
2018-05-29T01:03:48.952Z,92.00
2018-05-29T01:06:17.696Z,92.00
2018-05-29T01:08:46.727Z,92.00
2018-05-29T01:11:14.986Z,92.00
2018-05-29T01:13:43.243Z,92.20
2018-05-29T01:16:12.369Z,92.30
2018-05-29T01:18:41.329Z,92.30
2018-05-29T01:21:09.579Z,92.40
2018-05-29T01:23:38.066Z,92.40
2018-05-29T01:26:06.338Z,92.30
2018-05-29T01:28:34.590Z,92.20
2018-05-29T01:31:03.720Z,92.20
2018-05-29T01:33:31.999Z,92.20
2018-05-29T01:36:00.221Z,92.40
2018-05-29T01:38:28.517Z,92.30
2018-05-29T01:40:56.765Z,92.50
2018-05-29T01:43:25.001Z,92.60
2018-05-29T01:45:53.252Z,92.40
2018-05-29T01:48:21.532Z,92.30
2018-05-29T01:50:49.795Z,92.20
2018-05-29T01:53:18.065Z,92.20
2018-05-29T01:55:48.532Z,91.90
2018-05-29T01:58:17.591Z,91.90
2018-05-29T02:00:45.860Z,91.90
2018-05-29T02:03:14.106Z,92.00
2018-05-29T02:05:43.129Z,92.20
2018-05-29T02:08:11.772Z,92.10
2018-05-29T02:10:40.041Z,92.20
2018-05-29T02:13:09.044Z,92.50
2018-05-29T02:15:37.296Z,92.70
2018-05-29T02:18:05.541Z,92.50
2018-05-29T02:20:35.176Z,92.50
2018-05-29T02:23:03.404Z,92.50
2018-05-29T02:25:31.674Z,92.60
2018-05-29T02:27:59.924Z,92.70
2018-05-29T02:30:28.423Z,93.00
2018-05-29T02:32:56.759Z,93.00
2018-05-29T02:35:25.807Z,93.00
2018-05-29T02:37:54.053Z,92.90
2018-05-29T02:40:22.369Z,92.90
2018-05-29T02:42:50.626Z,93.10
2018-05-29T02:45:18.877Z,93.00
2018-05-29T02:47:47.885Z,92.90
2018-05-29T02:50:16.928Z,92.90
2018-05-29T02:52:45.171Z,92.90
2018-05-29T02:55:14.221Z,93.10
2018-05-29T02:57:42.629Z,93.10
2018-05-29T03:00:10.924Z,93.20
2018-05-29T03:02:39.926Z,93.20
2018-05-29T03:05:08.961Z,93.60
2018-05-29T03:07:37.205Z,93.60
2018-05-29T03:10:06.780Z,93.60
2018-05-29T03:12:35.020Z,93.60
2018-05-29T03:15:03.291Z,93.90
2018-05-29T03:17:31.548Z,94.10
2018-05-29T03:19:59.817Z,94.10
2018-05-29T03:22:28.190Z,94.20
2018-05-29T03:24:56.451Z,94.10
2018-05-29T03:27:24.703Z,93.90
2018-05-29T03:29:53.016Z,94.20
2018-05-29T03:32:21.286Z,94.40
2018-05-29T03:34:49.573Z,94.20
2018-05-29T03:37:17.830Z,94.40
2018-05-29T03:39:46.965Z,94.30
2018-05-29T03:42:15.212Z,94.40
2018-05-29T03:44:43.472Z,94.70
2018-05-29T03:47:13.238Z,94.70
2018-05-29T03:49:41.645Z,94.70
2018-05-29T03:52:09.911Z,94.70
2018-05-29T03:54:38.154Z,94.80
2018-05-29T03:57:06.405Z,94.80
2018-05-29T03:59:34.646Z,94.80
2018-05-29T04:02:02.909Z,94.80
2018-05-29T04:04:31.156Z,94.70
2018-05-29T04:07:00.180Z,94.70
2018-05-29T04:09:28.490Z,94.70
2018-05-29T04:11:57.530Z,94.80
2018-05-29T04:14:25.764Z,94.80
2018-05-29T04:16:54.046Z,94.90
2018-05-29T04:19:23.021Z,94.70
2018-05-29T04:21:51.299Z,94.60
2018-05-29T04:24:19.542Z,94.60
2018-05-29T04:26:47.868Z,94.50
2018-05-29T04:29:16.107Z,94.20
2018-05-29T04:31:44.363Z,94.00
2018-05-29T04:34:12.817Z,94.10
2018-05-29T04:36:41.816Z,94.20
2018-05-29T04:39:10.060Z,94.30
2018-05-29T04:41:38.414Z,94.50
2018-05-29T04:44:07.501Z,94.50
2018-05-29T04:46:35.744Z,94.40
2018-05-29T04:49:05.239Z,94.10
2018-05-29T04:51:34.264Z,94.10
2018-05-29T04:54:02.541Z,94.10
2018-05-29T04:56:31.020Z,93.80
2018-05-29T04:58:59.248Z,93.70
2018-05-29T05:01:27.512Z,93.50
2018-05-29T05:03:55.768Z,93.60
2018-05-29T05:06:24.097Z,93.40
2018-05-29T05:08:52.334Z,93.60
2018-05-29T05:11:20.681Z,93.60
2018-05-29T05:13:48.935Z,93.60
2018-05-29T05:16:17.260Z,93.60
2018-05-29T05:18:46.308Z,93.40
2018-05-29T05:21:14.554Z,93.40
2018-05-29T05:23:42.844Z,93.10
2018-05-29T05:26:11.104Z,93.30
2018-05-29T05:28:40.131Z,93.20
2018-05-29T05:31:08.454Z,93.20
2018-05-29T05:33:39.550Z,93.00
2018-05-29T05:36:08.577Z,92.90
2018-05-29T05:38:36.826Z,92.90
2018-05-29T05:41:05.834Z,92.70
2018-05-29T05:43:34.117Z,92.70
2018-05-29T05:46:02.427Z,92.50
2018-05-29T05:48:30.683Z,92.30
2018-05-29T05:50:58.947Z,92.00
2018-05-29T05:53:27.972Z,91.70
2018-05-29T05:55:56.226Z,91.70
2018-05-29T05:58:25.253Z,90.80
2018-05-29T06:00:53.521Z,90.80
2018-05-29T06:03:22.641Z,90.70
2018-05-29T06:05:50.895Z,90.80
2018-05-29T06:08:19.192Z,90.50
2018-05-29T06:10:47.463Z,90.60
2018-05-29T06:13:15.739Z,90.50
2018-05-29T06:15:44.002Z,89.80
2018-05-29T06:18:13.077Z,87.80
2018-05-29T06:20:41.300Z,87.80
2018-05-29T06:23:09.565Z,86.80
2018-05-29T06:25:38.606Z,85.50
2018-05-29T06:28:06.859Z,85.50
2018-05-29T06:30:35.129Z,85.70
2018-05-29T06:33:04.187Z,83.50
2018-05-29T06:35:32.563Z,83.40
2018-05-29T06:38:00.844Z,82.70
2018-05-29T06:40:29.099Z,81.70
2018-05-29T06:42:57.944Z,81.00
2018-05-29T06:45:26.197Z,80.50
2018-05-29T06:47:54.472Z,80.00
2018-05-29T06:50:22.750Z,79.50
2018-05-29T06:52:50.997Z,78.10
2018-05-29T06:55:20.064Z,77.50
2018-05-29T06:57:49.099Z,77.50
2018-05-29T07:00:17.893Z,76.50
2018-05-29T07:02:46.152Z,75.80
2018-05-29T07:05:15.212Z,75.40
2018-05-29T07:07:43.469Z,74.80
2018-05-29T07:10:11.713Z,74.10
2018-05-29T07:12:40.070Z,73.10
2018-05-29T07:15:08.323Z,71.90
2018-05-29T07:17:37.095Z,71.60
2018-05-29T07:20:05.373Z,71.60
2018-05-29T07:22:34.383Z,71.70
2018-05-29T07:25:02.684Z,71.60
2018-05-29T07:27:30.943Z,70.40
2018-05-29T07:29:59.201Z,70.80
2018-05-29T07:32:28.224Z,68.90
2018-05-29T07:34:56.494Z,69.60
2018-05-29T07:37:25.506Z,67.30
2018-05-29T07:39:53.760Z,67.20
2018-05-29T07:42:22.773Z,67.00
2018-05-29T07:44:51.809Z,66.20
2018-05-29T07:47:21.015Z,66.20
2018-05-29T07:49:49.284Z,65.60
2018-05-29T07:52:17.524Z,63.60
2018-05-29T07:54:45.791Z,64.20
2018-05-29T07:57:14.800Z,62.90
2018-05-29T07:59:43.827Z,62.30
2018-05-29T08:02:12.081Z,62.30
2018-05-29T08:04:40.348Z,61.90
2018-05-29T08:07:08.944Z,62.50
2018-05-29T08:09:37.213Z,60.40
2018-05-29T08:12:05.480Z,58.80
2018-05-29T08:14:33.729Z,59.10
2018-05-29T08:17:01.973Z,59.80
2018-05-29T08:19:31.066Z,58.80
2018-05-29T08:21:59.316Z,58.60
2018-05-29T08:24:27.608Z,59.30
2018-05-29T08:26:55.856Z,59.00
2018-05-29T08:29:24.147Z,57.90
2018-05-29T08:31:52.430Z,58.30
2018-05-29T08:34:20.702Z,58.20
2018-05-29T08:36:49.822Z,57.20
2018-05-29T08:39:18.721Z,56.90
2018-05-29T08:41:46.937Z,57.50
2018-05-29T08:44:16.007Z,54.70
2018-05-29T08:46:44.751Z,54.60
2018-05-29T08:49:13.033Z,54.10
2018-05-29T08:51:42.053Z,54.80
2018-05-29T08:54:10.351Z,54.90
2018-05-29T08:56:38.614Z,54.50
2018-05-29T08:59:06.856Z,54.10
2018-05-29T09:01:38.262Z,53.30
2018-05-29T09:04:06.633Z,53.10
2018-05-29T09:06:35.581Z,54.10
2018-05-29T09:09:03.842Z,53.80
2018-05-29T09:11:32.100Z,52.20
2018-05-29T09:14:00.372Z,52.50
2018-05-29T09:16:28.612Z,52.60
2018-05-29T09:18:56.884Z,52.60
2018-05-29T09:21:26.030Z,52.00
2018-05-29T09:23:54.753Z,51.40
2018-05-29T09:26:23.049Z,50.50
2018-05-29T09:28:52.631Z,50.20
2018-05-29T09:31:20.899Z,51.20
2018-05-29T09:33:49.157Z,49.80
2018-05-29T09:36:18.176Z,51.10
2018-05-29T09:38:46.424Z,51.10
2018-05-29T09:41:15.465Z,49.50
2018-05-29T09:43:44.628Z,49.50
2018-05-29T09:46:12.874Z,50.50
2018-05-29T09:48:41.121Z,50.50
2018-05-29T09:51:09.396Z,49.00
2018-05-29T09:53:37.670Z,48.70
2018-05-29T09:56:06.675Z,46.30
2018-05-29T09:58:35.091Z,46.30
2018-05-29T10:01:03.336Z,45.40
2018-05-29T10:03:31.658Z,47.10
2018-05-29T10:05:59.936Z,45.60
2018-05-29T10:08:28.208Z,45.60
2018-05-29T10:10:56.449Z,46.30
2018-05-29T10:13:25.522Z,45.90
2018-05-29T10:15:54.843Z,45.80
2018-05-29T10:18:23.073Z,46.00
2018-05-29T10:20:51.329Z,45.10
2018-05-29T10:23:19.627Z,44.70
2018-05-29T10:25:48.614Z,46.40
2018-05-29T10:28:16.946Z,46.40
2018-05-29T10:30:46.007Z,45.80
2018-05-29T10:33:14.279Z,46.90
2018-05-29T10:35:42.527Z,46.90
2018-05-29T10:38:10.951Z,46.20
2018-05-29T10:40:39.224Z,44.90
2018-05-29T10:43:07.484Z,44.70
2018-05-29T10:45:46.034Z,43.20
2018-05-29T10:48:14.748Z,42.60
2018-05-29T10:50:43.050Z,43.60
2018-05-29T10:53:11.346Z,43.30
2018-05-29T10:55:39.616Z,44.00
2018-05-29T10:58:07.896Z,43.00
2018-05-29T11:00:36.231Z,43.50
2018-05-29T11:03:04.516Z,43.50
2018-05-29T11:05:32.779Z,44.40
2018-05-29T11:08:01.045Z,45.00
2018-05-29T11:10:30.773Z,44.30
2018-05-29T11:12:59.622Z,44.20
2018-05-29T11:15:27.870Z,46.20
2018-05-29T11:17:56.709Z,45.20
2018-05-29T11:20:24.976Z,44.30
2018-05-29T11:22:53.283Z,43.70
2018-05-29T11:25:22.251Z,45.30
2018-05-29T11:27:51.095Z,46.80
2018-05-29T11:30:19.359Z,46.00
2018-05-29T11:32:48.428Z,46.00
2018-05-29T11:35:17.536Z,45.90
2018-05-29T11:37:45.800Z,46.70
2018-05-29T11:40:14.076Z,45.50
2018-05-29T11:42:42.945Z,44.60
2018-05-29T11:45:11.189Z,45.80
2018-05-29T11:47:40.168Z,45.70
2018-05-29T11:50:08.416Z,45.80
2018-05-29T11:52:36.697Z,45.80
2018-05-29T11:55:04.953Z,45.80
2018-05-29T11:57:33.998Z,46.20
2018-05-29T12:00:03.349Z,46.40
2018-05-29T12:02:31.620Z,46.40
2018-05-29T12:05:00.669Z,46.30
2018-05-29T12:07:28.899Z,46.20
2018-05-29T12:09:57.912Z,46.90
2018-05-29T12:12:26.945Z,47.90
2018-05-29T12:14:55.212Z,47.30
2018-05-29T12:17:23.464Z,48.00
2018-05-29T12:19:52.485Z,46.30
2018-05-29T12:22:20.876Z,46.20
2018-05-29T12:24:49.064Z,46.40
2018-05-29T12:27:17.345Z,45.90
2018-05-29T12:29:45.606Z,46.40
2018-05-29T12:32:14.015Z,45.80
2018-05-29T12:34:42.292Z,46.10
2018-05-29T12:37:10.563Z,45.80
2018-05-29T12:39:38.896Z,46.00
2018-05-29T12:42:07.166Z,46.80
2018-05-29T12:44:35.419Z,47.30
2018-05-29T12:47:03.676Z,47.80
2018-05-29T12:49:33.332Z,49.10
2018-05-29T12:52:01.679Z,49.10
2018-05-29T12:54:29.952Z,50.00
2018-05-29T12:56:58.991Z,50.80
2018-05-29T12:59:27.324Z,50.80
2018-05-29T13:01:56.365Z,52.00
2018-05-29T13:04:25.283Z,52.00
2018-05-29T13:06:53.512Z,52.80
2018-05-29T13:09:22.669Z,54.00
2018-05-29T13:11:50.909Z,54.00
2018-05-29T13:14:19.191Z,54.70
2018-05-29T13:16:47.493Z,55.60
2018-05-29T13:19:15.901Z,55.30
2018-05-29T13:21:44.249Z,56.00
2018-05-29T13:24:13.404Z,56.20
2018-05-29T13:26:42.484Z,56.60
2018-05-29T13:29:10.749Z,57.10
2018-05-29T13:31:39.033Z,57.90
2018-05-29T13:34:08.120Z,57.40
2018-05-29T13:36:36.352Z,58.10
2018-05-29T13:39:05.404Z,58.70
2018-05-29T13:41:33.673Z,58.70
2018-05-29T13:44:02.025Z,59.30
2018-05-29T13:46:30.313Z,61.60
2018-05-29T13:48:58.634Z,63.80
2018-05-29T13:51:26.908Z,64.50
2018-05-29T13:53:55.179Z,66.20
2018-05-29T13:56:24.216Z,66.60
2018-05-29T13:58:55.102Z,67.60
2018-05-29T14:01:24.144Z,70.10
2018-05-29T14:03:52.420Z,70.00
2018-05-29T14:06:20.681Z,71.70
2018-05-29T14:08:48.946Z,72.30
2018-05-29T14:11:17.519Z,74.80
2018-05-29T14:13:45.808Z,78.90
2018-05-29T14:16:15.107Z,81.60
2018-05-29T14:18:44.137Z,83.00
2018-05-29T14:21:12.377Z,83.00
2018-05-29T14:23:40.664Z,83.80
2018-05-29T14:26:09.704Z,83.90
2018-05-29T14:28:37.951Z,83.90
2018-05-29T14:31:07.018Z,85.60
2018-05-29T14:33:35.294Z,85.60
2018-05-29T14:36:03.576Z,85.70
2018-05-29T14:38:31.929Z,84.80
2018-05-29T14:41:00.153Z,84.70
2018-05-29T14:43:28.471Z,84.80
2018-05-29T14:45:56.745Z,85.10
2018-05-29T14:48:25.755Z,85.50
2018-05-29T14:50:54.040Z,85.40
2018-05-29T14:53:23.038Z,86.70
2018-05-29T14:55:51.289Z,86.70
2018-05-29T14:58:20.305Z,90.00
2018-05-29T15:00:49.338Z,91.20
2018-05-29T15:03:17.585Z,91.20
2018-05-29T15:05:46.615Z,96.80
2018-05-29T15:08:14.851Z,96.90
2018-05-29T15:10:43.920Z,99.90
2018-05-29T15:13:12.186Z,99.90
2018-05-29T15:15:40.416Z,99.90
2018-05-29T15:18:08.766Z,99.90
2018-05-29T15:20:37.827Z,99.90
2018-05-29T15:23:06.140Z,99.90
2018-05-29T15:25:35.110Z,99.90
2018-05-29T15:28:04.321Z,99.90
2018-05-29T15:30:32.608Z,99.90
2018-05-29T15:33:00.880Z,99.90
2018-05-29T15:35:29.211Z,99.90
2018-05-29T15:37:58.380Z,99.90
2018-05-29T15:40:26.667Z,99.90
2018-05-29T15:42:54.948Z,99.90
2018-05-29T15:45:23.213Z,99.90
2018-05-29T15:47:52.179Z,99.90
2018-05-29T15:50:21.522Z,99.90
2018-05-29T15:52:49.821Z,99.90
2018-05-29T15:55:18.117Z,99.90
2018-05-29T15:57:46.421Z,99.90
2018-05-29T16:00:16.296Z,99.90
2018-05-29T16:02:44.574Z,99.90
2018-05-29T16:05:12.812Z,99.90
2018-05-29T16:07:41.851Z,99.90
2018-05-29T16:10:10.124Z,99.90
2018-05-29T16:12:38.356Z,99.90
2018-05-29T16:15:07.385Z,99.90
2018-05-29T16:17:35.642Z,99.90
2018-05-29T16:20:04.693Z,99.90
2018-05-29T16:22:33.025Z,99.90
2018-05-29T16:25:02.076Z,99.90
2018-05-29T16:27:30.388Z,99.90
2018-05-29T16:29:58.705Z,99.90
2018-05-29T16:32:27.001Z,99.90
2018-05-29T16:34:55.244Z,99.90
2018-05-29T16:37:24.293Z,99.90
2018-05-29T16:39:52.552Z,99.90
2018-05-29T16:42:21.347Z,99.90
2018-05-29T16:44:49.601Z,99.90
2018-05-29T16:47:18.673Z,99.90
2018-05-29T16:49:46.979Z,99.90
2018-05-29T16:52:15.335Z,99.90
2018-05-29T16:54:43.613Z,99.90
2018-05-29T16:57:11.887Z,99.90
2018-05-29T16:59:41.128Z,99.90
2018-05-29T17:02:09.410Z,99.90
2018-05-29T17:04:37.705Z,99.90
2018-05-29T17:07:06.725Z,99.90
2018-05-29T17:09:35.010Z,99.90
2018-05-29T17:12:03.275Z,99.90
2018-05-29T17:14:31.528Z,99.90
2018-05-29T17:17:00.541Z,99.90
2018-05-29T17:19:29.588Z,99.90
2018-05-29T17:21:58.144Z,99.90
2018-05-29T17:24:27.157Z,99.90
2018-05-29T17:26:55.430Z,99.90
2018-05-29T17:29:24.376Z,99.90
2018-05-29T17:31:53.461Z,99.90
2018-05-29T17:34:21.757Z,99.90
2018-05-29T17:36:50.144Z,99.90
2018-05-29T17:39:18.491Z,99.90
2018-05-29T17:41:46.817Z,99.90
2018-05-29T17:44:15.784Z,99.90
2018-05-29T17:46:44.864Z,99.90
2018-05-29T17:49:13.124Z,99.90
2018-05-29T17:51:42.385Z,99.90
2018-05-29T17:54:10.975Z,99.90
2018-05-29T17:56:39.243Z,99.90
2018-05-29T17:59:08.688Z,99.90
2018-05-29T18:01:37.927Z,99.90
2018-05-29T18:04:06.197Z,99.90
2018-05-29T18:06:35.423Z,99.90
2018-05-29T18:09:03.890Z,99.90
2018-05-29T18:11:32.383Z,99.90
2018-05-29T18:14:00.845Z,99.90
2018-05-29T18:16:29.302Z,99.90
2018-05-29T18:18:57.546Z,99.90
2018-05-29T18:21:25.883Z,99.90
2018-05-29T18:23:55.121Z,99.90
2018-05-29T18:26:23.581Z,99.90
2018-05-29T18:28:52.766Z,99.90
2018-05-29T18:31:21.415Z,99.90
2018-05-29T18:33:49.965Z,99.90
2018-05-29T18:36:18.313Z,99.90
2018-05-29T18:38:47.046Z,99.90
2018-05-29T18:41:15.585Z,99.90
2018-05-29T18:43:43.990Z,99.90
2018-05-29T18:46:12.467Z,99.90
2018-05-29T18:48:41.675Z,99.90
2018-05-29T18:51:10.199Z,99.90
2018-05-29T18:53:38.637Z,99.90
2018-05-29T18:56:07.073Z,99.90
2018-05-29T18:58:36.345Z,99.90
2018-05-29T19:01:04.604Z,99.90
2018-05-29T19:03:33.076Z,99.90
2018-05-29T19:06:01.715Z,99.90
2018-05-29T19:08:31.159Z,99.90
2018-05-29T19:10:59.610Z,99.90
2018-05-29T19:13:28.770Z,99.90
2018-05-29T19:15:57.171Z,99.90
2018-05-29T19:18:25.632Z,99.90
2018-05-29T19:20:54.831Z,99.90
2018-05-29T19:23:23.239Z,99.90
2018-05-29T19:25:51.695Z,99.90
2018-05-29T19:28:20.037Z,99.90
2018-05-29T19:30:49.647Z,99.90
2018-05-29T19:33:19.176Z,99.90
2018-05-29T19:35:47.872Z,99.90
2018-05-29T19:38:16.567Z,99.90
2018-05-29T19:40:45.096Z,99.90
2018-05-29T19:43:13.636Z,99.90
2018-05-29T19:45:42.129Z,99.90
2018-05-29T19:48:10.717Z,99.90
2018-05-29T19:50:39.199Z,99.90
2018-05-29T19:53:07.655Z,99.90
2018-05-29T19:55:36.820Z,99.90
2018-05-29T19:58:05.320Z,99.90
2018-05-29T20:00:33.762Z,99.90
2018-05-29T20:03:02.356Z,99.90
2018-05-29T20:05:30.666Z,99.90
2018-05-29T20:07:58.993Z,99.90
2018-05-29T20:10:27.522Z,99.90
2018-05-29T20:12:56.835Z,99.90
2018-05-29T20:15:25.083Z,99.90
2018-05-29T20:17:53.687Z,99.90
2018-05-29T20:20:22.208Z,99.90
2018-05-29T20:22:50.873Z,99.90
2018-05-29T20:25:19.254Z,99.90
2018-05-29T20:27:49.232Z,99.90
2018-05-29T20:30:17.551Z,99.90
2018-05-29T20:32:45.945Z,99.90
2018-05-29T20:35:14.253Z,99.90
2018-05-29T20:37:42.642Z,99.90
2018-05-29T20:40:11.016Z,99.90
2018-05-29T20:42:41.116Z,99.90
2018-05-29T20:45:09.452Z,99.90
2018-05-29T20:47:39.716Z,99.90
2018-05-29T20:50:08.106Z,99.90
2018-05-29T20:52:37.337Z,99.90
2018-05-29T20:55:05.727Z,99.90
2018-05-29T20:57:34.191Z,99.90
2018-05-29T21:00:02.657Z,99.90
2018-05-29T21:02:31.039Z,99.90
2018-05-29T21:04:59.439Z,99.90
2018-05-29T21:07:27.868Z,99.90
2018-05-29T21:09:56.296Z,99.90
2018-05-29T21:12:24.554Z,99.90
2018-05-29T21:14:53.051Z,99.90
2018-05-29T21:17:21.409Z,99.90
2018-05-29T21:19:50.833Z,99.90
2018-05-29T21:22:19.327Z,99.90
2018-05-29T21:24:47.691Z,99.90
2018-05-29T21:27:16.838Z,99.90
2018-05-29T21:29:45.542Z,99.90
2018-05-29T21:32:14.038Z,99.90
2018-05-29T21:34:42.481Z,99.90
2018-05-29T21:37:10.874Z,99.90
2018-05-29T21:39:39.339Z,99.90
2018-05-29T21:42:08.430Z,99.90
2018-05-29T21:44:37.683Z,99.90
2018-05-29T21:47:06.134Z,99.90
2018-05-29T21:49:34.789Z,99.90
2018-05-29T21:52:03.284Z,99.90
2018-05-29T21:54:32.510Z,99.90
2018-05-29T21:57:01.607Z,99.90
2018-05-29T21:59:30.922Z,99.90
2018-05-29T22:01:59.224Z,99.90
2018-05-29T22:04:28.251Z,99.90
2018-05-29T22:06:56.649Z,99.90
2018-05-29T22:09:25.185Z,99.90
2018-05-29T22:11:53.567Z,99.90
2018-05-29T22:14:22.262Z,99.90
2018-05-29T22:16:50.633Z,99.90
2018-05-29T22:19:19.883Z,99.90
2018-05-29T22:21:48.202Z,99.90
2018-05-29T22:24:17.774Z,99.90
2018-05-29T22:26:46.154Z,99.90
2018-05-29T22:29:14.522Z,99.90
2018-05-29T22:31:42.962Z,99.90
2018-05-29T22:34:11.978Z,99.90
2018-05-29T22:36:40.339Z,99.90
2018-05-29T22:39:09.611Z,99.90
2018-05-29T22:41:37.978Z,99.90
2018-05-29T22:44:06.440Z,99.90
2018-05-29T22:46:35.094Z,99.90
2018-05-29T22:49:03.319Z,99.90
2018-05-29T22:51:31.578Z,99.90
2018-05-29T22:54:00.608Z,99.90
2018-05-29T22:56:28.849Z,99.90
2018-05-29T22:58:58.505Z,99.90
2018-05-29T23:01:27.011Z,99.90
2018-05-29T23:03:55.275Z,99.90
2018-05-29T23:06:23.551Z,99.90
2018-05-29T23:08:51.804Z,99.90
2018-05-29T23:11:20.826Z,99.90
2018-05-29T23:13:49.060Z,99.90
2018-05-29T23:16:17.631Z,99.90
2018-05-29T23:18:46.784Z,99.90
2018-05-29T23:21:15.045Z,99.90
2018-05-29T23:23:44.039Z,99.90
2018-05-29T23:26:13.072Z,99.90
2018-05-29T23:28:41.312Z,99.90
2018-05-29T23:31:11.077Z,99.90
2018-05-29T23:33:39.314Z,99.90
2018-05-29T23:36:08.356Z,99.90
2018-05-29T23:38:36.625Z,99.90
2018-05-29T23:41:04.926Z,99.90
2018-05-29T23:43:33.164Z,99.90
2018-05-29T23:46:02.175Z,99.90
2018-05-29T23:48:30.498Z,99.90
2018-05-29T23:50:59.371Z,99.90
2018-05-29T23:53:27.621Z,99.90
2018-05-29T23:55:58.445Z,99.90
2018-05-29T23:58:27.913Z,99.90
